Main page
METAR-TAF:

METAR-TAF

Airports :

Khartoum International Airport

Khartoum, Sudan

latitude: 15-36N, longitude: 032-33E, elevation: 382 m

Current weather observation

The report was made 20 minutes ago, at 04:00 UTC
Wind 4 kt from the North/Northwest
Temperature 28°C
Humidity 14%
Pressure 1012 hPa
Visibility 10 km or more
no clouds below 1500 m and no cumulonimbus

METAR: HSSS 260400Z 33004KT CAVOK 28/M02 Q1012 NOSIG

Time: 06:20 (04:20 UTC)

Forecast

The report was made 5 hours and 20 minutes ago, at 23:00 UTC
Forecast valid from 26 at 00 UTC to 27 at 06 UTC
Wind 8 kt from the North/Northwest with gusts up to 18 kt
Visibility 10 km or more
no clouds below 1500 m and no cumulonimbus

TAF: HSSS 252300Z 2600/2706 34008G18KT CAVOK

Weather observations and forecasts of more than 4000 airports (METAR and TAF reports).

The available stations are represented by yellow and red dots on the map.

Hover mouse over dot to see the name of the station.

Then click to see weather observations and forecasts.

To change the map : click on the green buttons with a black cross to zoom in, on the green button with a dash to zoom out, or on the green arrows for adjacent maps.


METAR-TAF: